Terminal Aerodrome Forecast
Issued by NWS

Home | Current Version | Previous Version | Text Only | Print | Product List | Glossary On
Versions: 1 2 3 4 5 6 7 8 9 10 11 12 13
000
FTUS42 TJSJ 070545
TAFJMZ
TAF
TJMZ 070545Z 0706/0806 07005KT P6SM SKC
     FM071330 09012KT P6SM FEW030 SCT050
     FM071750 29011KT P6SM VCSH BKN040
     FM072200 06005KT P6SM SCT040
      AMD NOT SKED TIL 071500=

USA.gov is the U.S. government's official web portal to all federal, state and local government web resources and services.